createdAt,value
2022-08-14T00:01:46.246Z,42.86
2022-08-14T00:04:35.762Z,43.17
2022-08-14T00:07:10.664Z,43.27
2022-08-14T00:09:55.179Z,43.34
2022-08-14T00:12:33.237Z,43.59
2022-08-14T00:15:02.841Z,43.15
2022-08-14T00:17:29.616Z,43.48
2022-08-14T00:19:57.986Z,43.65
2022-08-14T00:22:56.054Z,43.62
2022-08-14T00:25:12.944Z,43.63
2022-08-14T00:27:42.039Z,44.02
2022-08-14T00:30:11.192Z,44.39
2022-08-14T00:32:53.474Z,44.18
2022-08-14T00:36:37.544Z,44.43
2022-08-14T00:38:25.053Z,44.42
2022-08-14T00:40:53.838Z,44.21
2022-08-14T00:43:21.589Z,44.17
2022-08-14T00:45:51.621Z,44.22
2022-08-14T00:48:34.580Z,44.85
2022-08-14T00:51:08.952Z,45.09
2022-08-14T00:53:36.674Z,44.77
2022-08-14T00:56:07.069Z,44.94
2022-08-14T00:58:36.678Z,44.73
2022-08-14T01:01:14.600Z,44.79
2022-08-14T01:03:44.720Z,44.94
2022-08-14T01:10:05.246Z,44.85
2022-08-14T01:12:32.738Z,43.70
2022-08-14T01:15:02.183Z,44.38
2022-08-14T01:17:50.643Z,44.59
2022-08-14T01:20:39.751Z,45.26
2022-08-14T01:23:16.362Z,45.72
2022-08-14T01:25:46.678Z,45.17
2022-08-14T01:28:47.120Z,45.60
2022-08-14T01:31:01.734Z,45.79
2022-08-14T01:33:30.178Z,45.56
2022-08-14T01:36:04.512Z,45.75
2022-08-14T01:38:37.198Z,45.43
2022-08-14T01:41:16.297Z,46.32
2022-08-14T01:43:56.683Z,46.06
2022-08-14T01:46:25.152Z,46.26
2022-08-14T01:49:00.321Z,46.28
2022-08-14T01:51:28.582Z,46.32
2022-08-14T01:53:59.142Z,46.49
2022-08-14T01:56:39.735Z,46.62
2022-08-14T01:59:19.648Z,46.38
2022-08-14T02:01:58.533Z,46.97
2022-08-14T02:04:54.822Z,46.51
2022-08-14T02:07:17.542Z,46.41
2022-08-14T02:10:01.715Z,46.56
2022-08-14T02:12:29.262Z,46.62
2022-08-14T02:15:00.727Z,46.49
2022-08-14T02:17:29.268Z,46.94
2022-08-14T02:19:57.648Z,46.78
2022-08-14T02:22:28.711Z,47.04
2022-08-14T02:24:59.488Z,46.57
2022-08-14T02:28:25.725Z,46.98
2022-08-14T02:30:13.813Z,46.98
2022-08-14T02:32:40.388Z,47.23
2022-08-14T02:35:13.766Z,47.77
2022-08-14T02:37:47.141Z,47.21
2022-08-14T02:40:15.650Z,47.52
2022-08-14T02:42:54.677Z,47.49
2022-08-14T02:45:38.864Z,48.01
2022-08-14T02:49:05.235Z,47.19
2022-08-14T02:51:01.293Z,47.43
2022-08-14T02:53:31.695Z,47.62
2022-08-14T02:56:02.583Z,47.40
2022-08-14T02:58:32.940Z,47.33
2022-08-14T03:01:01.503Z,47.67
2022-08-14T03:03:28.682Z,47.76
2022-08-14T03:05:59.033Z,47.84
2022-08-14T03:08:31.794Z,47.96
2022-08-14T03:10:59.462Z,47.89
2022-08-14T03:13:26.013Z,48.05
2022-08-14T03:15:58.005Z,48.15
2022-08-14T03:18:31.629Z,48.30
2022-08-14T03:21:05.429Z,48.70
2022-08-14T03:23:38.673Z,48.32
2022-08-14T03:26:08.676Z,48.74
2022-08-14T03:28:42.700Z,48.64
2022-08-14T03:31:13.415Z,48.39
2022-08-14T03:33:41.130Z,48.83
2022-08-14T03:37:51.145Z,48.70
2022-08-14T03:39:12.266Z,48.69
2022-08-14T03:41:43.109Z,48.81
2022-08-14T03:45:28.012Z,49.14
2022-08-14T03:46:56.492Z,48.67
2022-08-14T03:49:28.789Z,48.93
2022-08-14T03:52:01.106Z,48.94
2022-08-14T03:54:29.007Z,49.16
2022-08-14T03:57:02.520Z,49.17
2022-08-14T03:59:29.860Z,49.23
2022-08-14T04:02:01.896Z,49.38
2022-08-14T04:04:33.482Z,49.40
2022-08-14T04:07:00.849Z,49.26
2022-08-14T04:09:27.880Z,49.57
2022-08-14T04:11:56.061Z,49.65
2022-08-14T04:14:23.580Z,49.61
2022-08-14T04:16:50.826Z,49.90
2022-08-14T04:19:20.585Z,49.51
2022-08-14T04:22:02.400Z,49.79
2022-08-14T04:24:38.492Z,49.96
2022-08-14T04:27:10.264Z,50.58
2022-08-14T04:29:38.793Z,50.31
2022-08-14T04:33:02.567Z,50.27
2022-08-14T04:34:56.200Z,50.17
2022-08-14T04:37:42.950Z,50.53
2022-08-14T04:40:29.135Z,50.19
2022-08-14T04:43:17.335Z,50.28
2022-08-14T04:45:44.797Z,50.54
2022-08-14T04:48:13.722Z,50.47
2022-08-14T04:51:01.506Z,50.64
2022-08-14T04:53:34.801Z,50.93
2022-08-14T04:56:02.738Z,50.98
2022-08-14T04:58:33.933Z,51.03
2022-08-14T05:01:04.144Z,51.16
2022-08-14T05:03:33.499Z,51.29
2022-08-14T05:06:03.022Z,51.53
2022-08-14T05:08:32.472Z,51.45
2022-08-14T05:11:20.699Z,51.91
2022-08-14T05:16:39.746Z,51.44
2022-08-14T05:19:18.165Z,51.28
2022-08-14T05:21:59.303Z,51.79
2022-08-14T05:24:27.519Z,51.71
2022-08-14T05:26:54.251Z,51.60
2022-08-14T05:29:22.068Z,51.78
2022-08-14T05:31:48.971Z,52.03
2022-08-14T05:34:28.820Z,51.90
2022-08-14T05:37:02.369Z,51.69
2022-08-14T05:39:31.408Z,52.14
2022-08-14T05:41:58.998Z,52.17
2022-08-14T05:44:30.127Z,51.93
2022-08-14T05:47:02.139Z,52.22
2022-08-14T05:49:36.635Z,51.67
2022-08-14T05:52:09.826Z,51.68
2022-08-14T05:54:36.731Z,51.67
2022-08-14T05:57:04.730Z,51.54
2022-08-14T05:59:38.647Z,51.05
2022-08-14T06:02:07.610Z,50.94
2022-08-14T06:04:36.777Z,51.47
2022-08-14T06:07:03.524Z,51.25
2022-08-14T06:09:36.047Z,50.80
2022-08-14T06:12:08.803Z,50.47
2022-08-14T06:14:36.845Z,50.63
2022-08-14T06:17:06.185Z,50.59
2022-08-14T06:19:32.782Z,50.44
2022-08-14T06:24:44.069Z,50.53
2022-08-14T06:27:10.893Z,50.53
2022-08-14T06:29:38.595Z,50.60
2022-08-14T06:32:37.808Z,50.38
2022-08-14T06:35:04.169Z,50.38
2022-08-14T06:37:43.292Z,50.42
2022-08-14T06:40:25.448Z,49.96
2022-08-14T06:42:54.709Z,49.90
2022-08-14T06:45:21.516Z,50.15
2022-08-14T06:47:53.805Z,49.88
2022-08-14T06:50:27.970Z,49.94
2022-08-14T06:52:56.171Z,49.68
2022-08-14T06:55:26.486Z,49.74
2022-08-14T06:57:55.140Z,49.65
2022-08-14T07:00:27.011Z,50.02
2022-08-14T07:03:13.104Z,49.90
2022-08-14T07:05:55.382Z,49.73
2022-08-14T07:08:29.427Z,49.65
2022-08-14T07:11:00.660Z,49.86
2022-08-14T07:13:28.445Z,49.45
2022-08-14T07:15:58.446Z,49.75
2022-08-14T07:18:36.041Z,49.18
2022-08-14T07:21:05.359Z,49.16
2022-08-14T07:23:40.210Z,49.20
2022-08-14T07:26:11.323Z,49.30
2022-08-14T07:28:43.015Z,49.43
2022-08-14T07:31:11.770Z,49.36
2022-08-14T07:33:50.759Z,49.77
2022-08-14T07:36:27.840Z,49.34
2022-08-14T07:39:00.734Z,49.15
2022-08-14T07:41:33.746Z,48.87
2022-08-14T07:44:28.850Z,48.78
2022-08-14T07:46:51.270Z,48.67
2022-08-14T07:49:19.093Z,48.21
2022-08-14T07:51:49.249Z,48.29
2022-08-14T07:54:23.224Z,48.25
2022-08-14T07:57:00.074Z,48.23
2022-08-14T07:59:42.439Z,47.70
2022-08-14T08:02:19.052Z,47.70
2022-08-14T08:04:53.030Z,47.88
2022-08-14T08:07:22.309Z,47.74
2022-08-14T08:09:53.604Z,47.84
2022-08-14T08:12:26.247Z,47.51
2022-08-14T08:15:05.647Z,47.66
2022-08-14T08:17:53.233Z,47.46
2022-08-14T08:20:27.083Z,47.28
2022-08-14T08:22:56.988Z,46.96
2022-08-14T08:25:29.879Z,47.10
2022-08-14T08:28:08.448Z,47.19
2022-08-14T08:30:49.291Z,46.82
2022-08-14T08:33:17.536Z,47.07
2022-08-14T08:35:46.326Z,46.58
2022-08-14T08:39:17.840Z,47.31
2022-08-14T08:41:10.936Z,46.66
2022-08-14T08:43:39.043Z,46.35
2022-08-14T08:46:21.176Z,46.40
2022-08-14T08:51:34.487Z,46.13
2022-08-14T08:54:15.329Z,45.71
2022-08-14T08:56:48.511Z,46.38
2022-08-14T08:59:33.968Z,45.62
2022-08-14T09:02:03.966Z,45.37
2022-08-14T09:04:45.450Z,45.48
2022-08-14T09:07:26.727Z,45.07
2022-08-14T09:09:59.011Z,45.12
2022-08-14T09:12:32.213Z,45.03
2022-08-14T09:15:11.824Z,45.57
2022-08-14T09:17:41.304Z,44.61
2022-08-14T09:20:11.298Z,44.48
2022-08-14T09:22:42.712Z,44.19
2022-08-14T09:25:59.071Z,43.92
2022-08-14T09:28:11.014Z,44.04
2022-08-14T09:30:44.683Z,43.36
2022-08-14T09:33:56.535Z,43.20
2022-08-14T09:36:54.306Z,43.37
2022-08-14T09:39:40.083Z,43.60
2022-08-14T09:42:33.868Z,42.87
2022-08-14T09:45:10.761Z,42.62
2022-08-14T09:47:44.769Z,42.98
2022-08-14T09:50:26.040Z,42.71
2022-08-14T09:53:17.730Z,42.53
2022-08-14T09:55:45.841Z,42.04
2022-08-14T09:58:22.645Z,41.79
2022-08-14T10:01:01.698Z,41.85
2022-08-14T10:03:36.446Z,41.20
2022-08-14T10:06:19.271Z,41.13
2022-08-14T10:08:51.438Z,40.65
2022-08-14T10:11:24.037Z,41.34
2022-08-14T10:13:55.776Z,42.31
2022-08-14T10:16:33.057Z,41.44
2022-08-14T10:19:10.051Z,40.48
2022-08-14T10:23:12.074Z,40.76
2022-08-14T10:24:36.680Z,40.27
2022-08-14T10:27:05.013Z,40.65
2022-08-14T10:29:37.848Z,39.99
2022-08-14T10:32:17.678Z,39.99
2022-08-14T10:34:46.358Z,39.79
2022-08-14T10:37:19.352Z,39.36
2022-08-14T10:40:05.417Z,39.94
2022-08-14T10:42:43.814Z,38.85
2022-08-14T10:45:33.970Z,39.84
2022-08-14T10:48:09.612Z,39.60
2022-08-14T10:50:51.690Z,39.19
2022-08-14T10:53:35.651Z,38.68
2022-08-14T10:56:21.520Z,38.54
2022-08-14T10:59:08.834Z,39.13
2022-08-14T11:01:41.863Z,38.57
2022-08-14T11:04:25.105Z,38.54
2022-08-14T11:06:56.068Z,38.92
2022-08-14T11:09:22.910Z,37.89
2022-08-14T11:11:56.574Z,37.17
2022-08-14T11:14:51.147Z,36.95
2022-08-14T11:17:32.225Z,35.83
2022-08-14T11:20:14.168Z,34.06
2022-08-14T11:22:56.626Z,33.35
2022-08-14T11:25:43.329Z,32.21
2022-08-14T11:28:14.825Z,31.66
2022-08-14T11:30:54.317Z,31.55
2022-08-14T11:33:29.184Z,31.71
2022-08-14T11:35:59.555Z,32.25
2022-08-14T11:38:29.070Z,31.65
2022-08-14T11:40:58.249Z,31.15
2022-08-14T11:43:29.593Z,31.49
2022-08-14T11:45:57.503Z,30.15
2022-08-14T11:48:58.998Z,29.78
2022-08-14T11:51:23.674Z,29.61
2022-08-14T11:53:55.492Z,29.36
2022-08-14T11:56:25.614Z,28.26
2022-08-14T11:58:56.063Z,27.83
2022-08-14T12:01:28.690Z,27.63
2022-08-14T12:04:01.128Z,27.28
2022-08-14T12:06:52.673Z,28.64
2022-08-14T12:09:33.454Z,29.04
2022-08-14T12:12:02.602Z,29.09
2022-08-14T12:14:35.336Z,28.34
2022-08-14T12:17:11.860Z,27.38
2022-08-14T12:19:54.041Z,28.92
2022-08-14T12:22:35.509Z,27.90
2022-08-14T12:25:08.487Z,27.67
2022-08-14T12:27:41.491Z,27.02
2022-08-14T12:30:13.052Z,26.45
2022-08-14T12:32:41.817Z,26.40
2022-08-14T12:35:10.689Z,25.55
2022-08-14T12:37:38.701Z,24.87
2022-08-14T12:40:15.690Z,24.32
2022-08-14T12:42:47.461Z,23.75
2022-08-14T12:45:33.949Z,24.91
2022-08-14T12:48:21.102Z,24.23
2022-08-14T12:50:53.309Z,24.49
2022-08-14T12:53:21.981Z,24.67
2022-08-14T12:56:22.861Z,24.90
2022-08-14T12:58:57.632Z,25.67
2022-08-14T13:01:24.224Z,24.79
2022-08-14T13:04:05.404Z,25.09
2022-08-14T13:06:33.558Z,24.27
2022-08-14T13:09:00.988Z,23.15
2022-08-14T13:11:34.734Z,22.20
2022-08-14T13:14:03.446Z,23.28
2022-08-14T13:16:37.645Z,23.23
2022-08-14T13:19:11.028Z,21.94
2022-08-14T13:22:04.866Z,21.09
2022-08-14T13:24:27.870Z,21.23
2022-08-14T13:26:58.316Z,21.09
2022-08-14T13:29:29.691Z,21.37
2022-08-14T13:31:58.542Z,21.76
2022-08-14T13:34:28.333Z,21.48
2022-08-14T13:37:03.599Z,21.79
2022-08-14T13:39:31.516Z,21.63
2022-08-14T13:42:08.767Z,23.32
2022-08-14T13:44:43.172Z,22.22
2022-08-14T13:47:12.203Z,22.36
2022-08-14T13:49:57.935Z,22.90
2022-08-14T13:52:52.519Z,23.50
2022-08-14T13:55:14.227Z,23.42
2022-08-14T13:57:49.601Z,23.42
2022-08-14T14:00:35.777Z,22.90
2022-08-14T14:03:06.905Z,23.50
2022-08-14T14:05:52.725Z,24.15
2022-08-14T14:08:43.528Z,23.98
2022-08-14T14:11:09.739Z,23.97
2022-08-14T14:13:42.088Z,25.27
2022-08-14T14:16:14.932Z,23.71
2022-08-14T14:18:43.912Z,22.68
2022-08-14T14:21:14.068Z,21.77
2022-08-14T14:23:43.936Z,21.02
2022-08-14T14:26:20.046Z,20.94
2022-08-14T14:28:52.088Z,21.28
2022-08-14T14:31:30.275Z,20.97
2022-08-14T14:34:28.920Z,22.53
2022-08-14T14:37:03.591Z,21.23
2022-08-14T14:39:33.014Z,21.67
2022-08-14T14:42:06.156Z,20.93
2022-08-14T14:44:35.306Z,20.13
2022-08-14T14:47:01.868Z,20.98
2022-08-14T14:49:51.067Z,21.16
2022-08-14T14:52:26.965Z,20.71
2022-08-14T14:54:56.006Z,20.53
2022-08-14T14:57:26.678Z,20.32
2022-08-14T15:00:01.758Z,20.11
2022-08-14T15:02:38.134Z,19.43
2022-08-14T15:05:08.190Z,19.36
2022-08-14T15:07:38.895Z,19.80
2022-08-14T15:10:27.929Z,19.22
2022-08-14T15:12:57.601Z,19.42
2022-08-14T15:15:27.256Z,20.37
2022-08-14T15:17:54.811Z,19.02
2022-08-14T15:20:29.860Z,18.61
2022-08-14T15:23:01.123Z,18.43
2022-08-14T15:25:39.999Z,18.46
2022-08-14T15:28:11.673Z,17.95
2022-08-14T15:30:41.628Z,17.68
2022-08-14T15:33:08.936Z,17.79
2022-08-14T15:35:35.807Z,17.60
2022-08-14T15:38:11.403Z,18.06
2022-08-14T15:40:41.657Z,18.22
2022-08-14T15:43:10.908Z,19.08
2022-08-14T15:45:41.042Z,19.24
2022-08-14T15:48:14.006Z,20.14
2022-08-14T15:50:49.196Z,20.47
2022-08-14T15:53:17.512Z,21.13
2022-08-14T15:55:44.033Z,21.45
2022-08-14T15:58:14.475Z,22.04
2022-08-14T16:00:59.782Z,21.99
2022-08-14T16:03:35.256Z,22.42
2022-08-14T16:06:11.031Z,22.87
2022-08-14T16:08:44.326Z,22.98
2022-08-14T16:11:12.207Z,23.50
2022-08-14T16:13:43.371Z,23.14
2022-08-14T16:16:47.355Z,23.52
2022-08-14T16:19:11.042Z,23.83
2022-08-14T16:24:33.266Z,24.22
2022-08-14T16:27:01.581Z,24.56
2022-08-14T16:29:33.016Z,25.39
2022-08-14T16:32:33.631Z,25.67
2022-08-14T16:34:54.734Z,24.97
2022-08-14T16:37:23.347Z,25.49
2022-08-14T16:39:58.798Z,26.00
2022-08-14T16:40:23.944Z,24.51
2022-08-14T16:43:03.487Z,26.63
2022-08-14T16:45:17.478Z,27.45
2022-08-14T16:47:44.602Z,27.18
2022-08-14T16:50:15.352Z,27.99
2022-08-14T16:53:03.323Z,27.57
2022-08-14T16:55:35.323Z,27.51
2022-08-14T16:58:21.541Z,27.85
2022-08-14T17:00:54.007Z,27.98
2022-08-14T17:03:20.613Z,27.48
2022-08-14T17:05:48.186Z,27.93
2022-08-14T17:08:31.529Z,28.41
2022-08-14T17:11:04.678Z,28.02
2022-08-14T17:13:59.169Z,27.75
2022-08-14T17:16:26.111Z,27.92
2022-08-14T17:19:03.789Z,28.25
2022-08-14T17:21:38.369Z,28.42
2022-08-14T17:24:58.141Z,29.02
2022-08-14T17:27:04.441Z,28.79
2022-08-14T17:29:33.217Z,28.12
2022-08-14T17:32:28.136Z,29.20
2022-08-14T17:34:57.847Z,29.90
2022-08-14T17:37:30.167Z,30.16
2022-08-14T17:40:01.254Z,30.88
2022-08-14T17:42:53.416Z,30.45
2022-08-14T17:45:38.920Z,31.53
2022-08-14T17:49:14.228Z,30.92
2022-08-14T17:51:12.384Z,31.49
2022-08-14T17:53:53.382Z,31.83
2022-08-14T17:56:31.450Z,32.17
2022-08-14T17:59:06.880Z,31.94
2022-08-14T18:01:40.763Z,32.52
2022-08-14T18:04:27.964Z,32.17
2022-08-14T18:07:16.301Z,32.46
2022-08-14T18:09:56.138Z,33.26
2022-08-14T18:12:32.368Z,33.19
2022-08-14T18:15:06.783Z,33.45
2022-08-14T18:17:53.036Z,33.26
2022-08-14T18:21:40.211Z,33.76
2022-08-14T18:23:13.111Z,33.30
2022-08-14T18:25:47.193Z,33.74
2022-08-14T18:28:48.104Z,33.63
2022-08-14T18:31:22.946Z,33.55
2022-08-14T18:33:55.396Z,34.08
2022-08-14T18:36:48.696Z,33.80
2022-08-14T18:39:32.704Z,33.99
2022-08-14T18:42:23.793Z,33.87
2022-08-14T18:44:50.855Z,34.10
2022-08-14T18:47:20.414Z,34.22
2022-08-14T18:49:52.879Z,35.10
2022-08-14T18:52:29.661Z,34.71
2022-08-14T18:54:59.726Z,34.66
2022-08-14T18:57:27.178Z,34.64
2022-08-14T19:00:32.427Z,35.22
2022-08-14T19:03:01.563Z,34.83
2022-08-14T19:05:37.584Z,35.46
2022-08-14T19:08:17.808Z,34.93
2022-08-14T19:10:51.399Z,35.53
2022-08-14T19:13:48.104Z,35.24
2022-08-14T19:16:17.154Z,36.21
2022-08-14T19:18:53.983Z,36.24
2022-08-14T19:21:56.266Z,35.54
2022-08-14T19:24:44.037Z,35.84
2022-08-14T19:27:24.295Z,36.21
2022-08-14T19:30:20.098Z,35.77
2022-08-14T19:32:50.951Z,36.31
2022-08-14T19:35:24.860Z,36.59
2022-08-14T19:38:33.054Z,36.51
2022-08-14T19:41:01.607Z,37.04
2022-08-14T19:43:56.046Z,37.12
2022-08-14T19:46:39.528Z,36.86
2022-08-14T19:49:02.818Z,37.53
2022-08-14T19:51:32.632Z,37.45
2022-08-14T19:54:13.440Z,37.23
2022-08-14T19:56:45.952Z,37.74
2022-08-14T19:59:18.257Z,38.35
2022-08-14T20:01:49.673Z,37.55
2022-08-14T20:04:45.881Z,37.79
2022-08-14T20:07:11.610Z,37.35
2022-08-14T20:11:12.681Z,37.83
2022-08-14T20:12:35.424Z,38.00
2022-08-14T20:15:08.727Z,37.58
2022-08-14T20:17:40.312Z,38.30
2022-08-14T20:20:21.071Z,38.52
2022-08-14T20:22:57.705Z,38.55
2022-08-14T20:25:36.197Z,39.04
2022-08-14T20:28:29.812Z,38.88
2022-08-14T20:31:17.863Z,38.81
2022-08-14T20:34:03.552Z,38.80
2022-08-14T20:36:30.069Z,38.93
2022-08-14T20:38:58.016Z,38.97
2022-08-14T20:41:25.322Z,38.84
2022-08-14T20:44:10.277Z,39.10
2022-08-14T20:46:39.401Z,39.36
2022-08-14T20:49:16.149Z,39.54
2022-08-14T20:51:58.613Z,39.22
2022-08-14T20:54:34.409Z,39.74
2022-08-14T20:57:17.700Z,39.02
2022-08-14T20:59:50.359Z,39.53
2022-08-14T21:02:34.591Z,39.61
2022-08-14T21:05:16.346Z,39.52
2022-08-14T21:07:44.497Z,39.37
2022-08-14T21:10:35.235Z,39.52
2022-08-14T21:14:08.542Z,39.31
2022-08-14T21:15:57.415Z,39.76
2022-08-14T21:18:31.658Z,39.87
2022-08-14T21:21:06.808Z,39.67
2022-08-14T21:23:54.930Z,39.13
2022-08-14T21:26:51.371Z,39.54
2022-08-14T21:29:11.358Z,39.36
2022-08-14T21:31:40.189Z,39.17
2022-08-14T21:34:31.131Z,38.82
2022-08-14T21:36:54.587Z,38.55
2022-08-14T21:39:24.885Z,38.56
2022-08-14T21:41:58.880Z,38.72
2022-08-14T21:44:42.728Z,38.72
2022-08-14T21:47:11.807Z,39.35
2022-08-14T21:49:40.111Z,39.82
2022-08-14T21:52:49.723Z,39.94
2022-08-14T21:55:13.167Z,39.16
2022-08-14T21:58:45.916Z,39.41
2022-08-14T22:00:39.663Z,39.45
2022-08-14T22:03:13.628Z,40.17
2022-08-14T22:05:41.941Z,40.38
2022-08-14T22:08:11.924Z,40.73
2022-08-14T22:10:42.495Z,41.05
2022-08-14T22:13:11.952Z,40.69
2022-08-14T22:15:43.819Z,40.42
2022-08-14T22:18:20.177Z,40.98
2022-08-14T22:20:48.394Z,41.22
2022-08-14T22:23:23.057Z,40.98
2022-08-14T22:25:51.159Z,41.30
2022-08-14T22:28:25.271Z,41.46
2022-08-14T22:30:55.086Z,41.02
2022-08-14T22:33:30.952Z,41.03
2022-08-14T22:35:59.295Z,41.48
2022-08-14T22:38:37.974Z,41.33
2022-08-14T22:41:26.649Z,41.35
2022-08-14T22:43:57.323Z,41.36
2022-08-14T22:46:26.302Z,41.64
2022-08-14T22:48:53.837Z,41.44
2022-08-14T22:51:23.359Z,42.10
2022-08-14T22:53:53.779Z,42.38
2022-08-14T22:56:29.226Z,42.87
2022-08-14T22:59:02.075Z,42.79
2022-08-14T23:01:56.313Z,42.79
2022-08-14T23:04:35.841Z,42.53
2022-08-14T23:07:14.366Z,42.67
2022-08-14T23:09:57.747Z,43.13
2022-08-14T23:12:45.851Z,41.62
2022-08-14T23:15:17.339Z,42.52
2022-08-14T23:17:45.785Z,42.75
2022-08-14T23:20:19.997Z,43.52
2022-08-14T23:22:52.314Z,43.27
2022-08-14T23:25:57.414Z,43.01
2022-08-14T23:28:34.641Z,43.14
2022-08-14T23:30:55.361Z,42.38
2022-08-14T23:33:22.178Z,42.50
2022-08-14T23:35:59.190Z,42.12
2022-08-14T23:38:31.059Z,42.04
2022-08-14T23:40:58.821Z,42.21
2022-08-14T23:43:31.382Z,42.06
2022-08-14T23:45:58.998Z,41.61
2022-08-14T23:48:28.552Z,41.60
2022-08-14T23:50:56.337Z,41.90
2022-08-14T23:53:28.455Z,41.86
2022-08-14T23:56:39.667Z,41.42
2022-08-14T23:59:10.335Z,41.84
